Time;durP1;ratioP1;P1;durP2;ratioP2;P2;SDS_P1;SDS_P2;PMS_P1;PMS_P2;Temp;Humidity;BMP_temperature;BMP_pressure;BME280_temperature;BME280_humidity;BME280_pressure;Samples;Min_cycle;Max_cycle;Signal;HPM_P1;HPM_P2
2022/01/03 00:00:26;;;;;;;;;1.50;0.00;;;;;20.53;45.69;101391.31;5041456;28;45561;-54
2022/01/03 00:02:57;;;;;;;;;2.00;1.00;;;;;20.50;45.26;101388.81;5059771;28;45361;-51
2022/01/03 00:05:22;;;;;;;;;3.00;1.00;;;;;20.52;45.89;101403.63;5059856;28;45406;-56
2022/01/03 00:07:48;;;;;;;;;1.00;1.00;;;;;20.51;45.55;101399.25;5041618;28;45329;-57
2022/01/03 00:10:16;;;;;;;;;3.00;1.75;;;;;20.52;46.09;101408.03;5041254;28;45351;-55
2022/01/03 00:12:42;;;;;;;;;1.00;1.00;;;;;20.51;45.66;101406.34;5059558;28;45310;-58
2022/01/03 00:15:11;;;;;;;;;0.50;0.50;;;;;20.49;46.03;101411.69;5059628;28;45425;-56
2022/01/03 00:17:37;;;;;;;;;1.50;0.50;;;;;20.50;45.81;101409.88;5059215;28;46610;-59
2022/01/03 00:20:04;;;;;;;;;0.00;0.00;;;;;20.48;45.38;101415.22;5041271;28;45452;-59
2022/01/03 00:22:39;;;;;;;;;1.25;1.25;;;;;20.46;45.77;101411.81;5059453;28;45385;-51
2022/01/03 00:25:15;;;;;;;;;1.00;0.00;;;;;20.48;45.60;101423.13;5059527;28;45355;-59
2022/01/03 00:28:01;;;;;;;;;2.00;1.00;;;;;20.46;46.24;101411.81;5059163;28;46479;-54
2022/01/03 00:30:26;;;;;;;;;0.75;0.50;;;;;20.47;45.62;101426.69;5059328;28;45704;-54
2022/01/03 00:32:52;;;;;;;;;1.00;0.00;;;;;20.46;46.06;101434.63;5059535;28;45407;-48
2022/01/03 00:35:21;;;;;;;;;3.25;2.00;;;;;20.46;45.57;101437.28;5059665;28;45510;-56
2022/01/03 00:37:48;;;;;;;;;2.50;1.00;;;;;20.45;45.78;101425.06;5058397;28;45526;-55
2022/01/03 00:40:16;;;;;;;;;2.00;1.25;;;;;20.46;46.20;101437.28;5059031;28;45285;-53
2022/01/03 00:42:43;;;;;;;;;1.00;0.50;;;;;20.45;46.27;101432.94;5059107;28;45241;-60
2022/01/03 00:45:09;;;;;;;;;4.00;1.00;;;;;20.44;46.34;101436.50;5059356;28;45627;-55
2022/01/03 00:47:35;;;;;;;;;3.50;2.00;;;;;20.44;45.93;101444.41;5058633;28;46531;-50
2022/01/03 00:50:10;;;;;;;;;1.00;1.00;;;;;20.41;46.35;101437.47;5058746;28;45788;-53
2022/01/03 00:52:36;;;;;;;;;0.50;0.50;;;;;20.38;46.56;101433.22;5058803;28;45376;-57
2022/01/03 00:55:04;;;;;;;;;1.75;1.75;;;;;20.41;46.21;101441.91;5059015;28;45328;-58
2022/01/03 00:57:42;;;;;;;;;2.00;1.00;;;;;20.42;46.50;101439.19;5058585;28;45313;-57
2022/01/03 01:00:09;;;;;;;;;1.00;1.00;;;;;20.42;46.15;101435.72;5058796;28;45422;-57
2022/01/03 01:02:36;;;;;;;;;1.75;1.75;;;;;20.41;46.43;101439.28;5040768;28;45325;-58
2022/01/03 01:05:03;;;;;;;;;3.50;1.00;;;;;20.40;46.69;101430.50;5057692;28;45258;-57
2022/01/03 01:07:31;;;;;;;;;1.00;1.00;;;;;20.40;46.90;101435.78;5058430;28;46211;-53
2022/01/03 01:10:00;;;;;;;;;1.00;0.50;;;;;20.38;46.56;101440.28;5040400;28;46224;-51
2022/01/03 01:12:27;;;;;;;;;0.00;0.00;;;;;20.39;46.48;101440.19;5058680;28;45399;-54
2022/01/03 01:14:52;;;;;;;;;1.00;1.00;;;;;20.36;46.70;101445.59;5059026;28;45538;-60
2022/01/03 01:17:17;;;;;;;;;3.00;2.00;;;;;20.38;46.29;101442.91;5058275;28;45403;-56
2022/01/03 01:19:43;;;;;;;;;2.00;0.50;;;;;20.36;46.36;101444.75;5058370;28;45314;-57
2022/01/03 01:22:09;;;;;;;;;4.75;1.25;;;;;20.32;46.73;101438.78;5058681;28;45414;-60
2022/01/03 01:24:46;;;;;;;;;3.00;2.00;;;;;20.35;46.78;101446.50;5058714;28;45454;-57
2022/01/03 01:29:55;;;;;;;;;5.75;1.00;;;;;20.33;46.54;101434.34;5058324;28;45690;-56
2022/01/03 01:32:21;;;;;;;;;2.25;0.75;;;;;20.32;46.44;101438.78;5058639;28;45248;-56
2022/01/03 01:34:50;;;;;;;;;2.25;1.75;;;;;20.31;46.89;101436.19;5058430;28;45231;-61
2022/01/03 01:37:19;;;;;;;;;0.50;0.50;;;;;20.32;46.78;101433.50;5058046;28;46471;-58
2022/01/03 01:39:48;;;;;;;;;2.00;1.00;;;;;20.31;46.75;101426.53;5058107;28;45312;-57
2022/01/03 01:42:17;;;;;;;;;4.00;1.25;;;;;20.31;46.29;101426.53;5058218;28;45414;-59
2022/01/03 01:44:49;;;;;;;;;1.00;1.00;;;;;20.30;46.90;101429.22;5058383;28;45565;-59
2022/01/03 01:47:16;;;;;;;;;1.00;1.00;;;;;20.30;46.99;101424.81;5040211;28;46411;-60
2022/01/03 01:49:46;;;;;;;;;3.50;2.00;;;;;20.30;46.87;101439.75;5057929;28;45784;-56
2022/01/03 01:52:21;;;;;;;;;1.00;1.00;;;;;20.27;46.62;101419.69;5040089;28;45439;-58
2022/01/03 01:55:08;;;;;;;;;1.00;1.00;;;;;20.28;46.34;101424.03;5058074;28;45415;-57
2022/01/03 01:58:06;;;;;;;;;1.50;1.00;;;;;20.28;46.81;101423.19;5057942;28;46379;-57
2022/01/03 02:00:34;;;;;;;;;1.00;1.00;;;;;20.26;46.35;101412.72;5057899;28;45792;-51
2022/01/03 02:03:31;;;;;;;;;0.50;0.25;;;;;20.27;47.03;101406.53;5039985;28;45312;-58
2022/01/03 02:06:06;;;;;;;;;0.00;0.00;;;;;20.26;46.51;101402.19;5057011;28;45540;-54
2022/01/03 02:08:37;;;;;;;;;1.50;1.00;;;;;20.26;46.48;101407.44;5057485;28;46564;-56
2022/01/03 02:11:19;;;;;;;;;6.50;1.25;;;;;20.25;46.45;101421.53;5057654;28;45415;-58
2022/01/03 02:13:46;;;;;;;;;2.25;0.50;;;;;20.24;46.53;101422.44;5057639;28;45336;-59
2022/01/03 02:16:12;;;;;;;;;0.75;0.75;;;;;20.22;46.46;101419.06;5057424;28;45451;-57
2022/01/03 02:18:37;;;;;;;;;3.00;1.00;;;;;20.23;46.50;101424.22;5039248;28;47191;-57
2022/01/03 02:21:03;;;;;;;;;3.25;2.00;;;;;20.22;47.06;101421.69;5057461;28;45373;-56
2022/01/03 02:23:30;;;;;;;;;2.00;2.00;;;;;20.21;46.39;101415.53;5039334;28;45456;-59
2022/01/03 02:25:55;;;;;;;;;1.25;1.00;;;;;20.21;47.01;101415.53;5058133;28;45639;-57
2022/01/03 02:28:22;;;;;;;;;2.50;1.50;;;;;20.21;46.92;101412.06;5057270;28;45372;-58
2022/01/03 02:30:49;;;;;;;;;3.50;1.50;;;;;20.20;46.42;101418.25;5057264;28;45371;-58
2022/01/03 02:33:15;;;;;;;;;1.75;1.50;;;;;20.20;46.79;101424.38;5057558;28;45442;-58
2022/01/03 02:35:42;;;;;;;;;1.50;0.25;;;;;20.20;46.68;101421.72;5057472;28;45388;-61
2022/01/03 02:38:08;;;;;;;;;4.00;1.75;;;;;20.20;46.54;101441.94;5057204;28;46451;-55
2022/01/03 02:40:34;;;;;;;;;2.00;1.00;;;;;20.19;46.90;101438.44;5057120;28;45754;-57
2022/01/03 02:43:00;;;;;;;;;1.00;1.00;;;;;20.18;47.01;101426.19;5057105;28;45229;-53
2022/01/03 02:45:26;;;;;;;;;1.50;1.50;;;;;20.14;46.49;101429.91;5039564;28;45332;-58
2022/01/03 02:47:55;;;;;;;;;3.00;1.00;;;;;20.19;46.56;101427.06;5056877;28;45675;-55
2022/01/03 02:50:22;;;;;;;;;0.25;0.25;;;;;20.18;47.10;101412.19;5057052;28;45410;-59
2022/01/03 02:52:48;;;;;;;;;1.50;1.00;;;;;20.18;46.58;101414.84;5057189;28;45590;-54
2022/01/03 02:55:16;;;;;;;;;2.00;0.00;;;;;20.16;46.58;101427.19;5057201;28;45491;-50
2022/01/03 02:57:48;;;;;;;;;1.00;1.00;;;;;20.17;46.82;101435.06;5056693;28;46961;-51
2022/01/03 03:00:21;;;;;;;;;1.00;1.00;;;;;20.17;47.17;101428.91;5056948;28;45944;-53
2022/01/03 03:02:47;;;;;;;;;1.50;1.50;;;;;20.11;46.66;101410.78;5057025;28;45329;-56
2022/01/03 03:05:14;;;;;;;;;1.00;1.00;;;;;20.16;46.55;101416.69;5038972;28;45501;-51
2022/01/03 03:07:40;;;;;;;;;2.50;1.00;;;;;20.15;47.15;101409.69;5038183;28;45574;-54
2022/01/03 03:10:08;;;;;;;;;4.00;1.25;;;;;20.14;47.07;101398.34;5056709;28;45763;-56
2022/01/03 03:12:34;;;;;;;;;3.00;1.00;;;;;20.12;46.72;101389.66;5056783;28;45337;-53
2022/01/03 03:15:00;;;;;;;;;0.75;0.50;;;;;20.13;46.96;101395.75;5057264;28;46083;-53
2022/01/03 03:17:25;;;;;;;;;2.00;1.75;;;;;20.13;46.81;101391.34;5038656;28;47859;-51
2022/01/03 03:19:58;;;;;;;;;3.75;1.50;;;;;20.14;46.98;101397.47;5056628;28;45379;-50
2022/01/03 03:22:26;;;;;;;;;0.25;0.25;;;;;20.13;46.85;101393.13;5056573;28;45375;-55
2022/01/03 03:25:00;;;;;;;;;0.50;0.50;;;;;20.12;47.15;101384.38;5056921;28;45399;-56
2022/01/03 03:27:26;;;;;;;;;3.50;2.00;;;;;20.11;46.81;101382.66;5055718;28;45509;-54
2022/01/03 03:29:51;;;;;;;;;1.00;1.00;;;;;20.11;47.01;101387.94;5056453;28;45355;-54
2022/01/03 03:32:18;;;;;;;;;2.00;0.25;;;;;20.11;46.92;101387.94;5056460;28;45389;-53
2022/01/03 03:34:46;;;;;;;;;2.00;2.00;;;;;20.10;46.99;101388.84;5056560;28;45391;-54
2022/01/03 03:37:11;;;;;;;;;2.00;1.25;;;;;20.10;47.24;101385.38;5056096;28;46998;-54
2022/01/03 03:39:39;;;;;;;;;1.00;1.00;;;;;20.10;47.48;101388.00;5056266;28;45288;-55
2022/01/03 03:42:06;;;;;;;;;2.75;2.00;;;;;20.10;47.17;101391.50;5038691;28;45425;-54
2022/01/03 03:44:32;;;;;;;;;2.00;1.00;;;;;20.10;47.08;101391.50;5056678;28;45372;-55
2022/01/03 03:46:58;;;;;;;;;3.00;1.00;;;;;20.10;47.51;101385.38;5056431;28;46445;-56
2022/01/03 03:49:23;;;;;;;;;3.00;2.50;;;;;20.09;47.53;101379.25;5056195;28;45336;-55
2022/01/03 03:51:48;;;;;;;;;1.25;1.00;;;;;20.06;47.21;101380.25;5038203;28;45308;-52
2022/01/03 03:54:14;;;;;;;;;1.25;0.50;;;;;20.08;47.21;101377.53;5056525;28;45302;-58
2022/01/03 03:56:39;;;;;;;;;2.25;1.00;;;;;20.06;47.23;101372.34;5056000;28;46728;-58
2022/01/03 03:59:04;;;;;;;;;2.00;2.00;;;;;20.05;47.39;101368.00;5056021;28;45317;-56
2022/01/03 04:01:30;;;;;;;;;4.00;2.00;;;;;20.06;47.28;101369.72;5056508;28;45399;-57
2022/01/03 04:03:55;;;;;;;;;0.75;0.75;;;;;20.06;47.37;101379.41;5056330;28;45430;-59
2022/01/03 04:06:20;;;;;;;;;2.75;1.00;;;;;20.06;47.48;101367.09;5055703;28;50140;-59
2022/01/03 04:08:46;;;;;;;;;1.75;1.00;;;;;20.06;47.33;101368.88;5037695;28;45808;-53
2022/01/03 04:11:15;;;;;;;;;1.00;1.00;;;;;20.06;47.35;101348.66;5056130;28;45400;-59
2022/01/03 04:13:41;;;;;;;;;0.50;0.50;;;;;20.05;47.06;101349.59;5038067;28;45550;-53
2022/01/03 04:16:07;;;;;;;;;4.00;0.50;;;;;20.05;47.08;101336.44;5055824;28;45458;-51
2022/01/03 04:18:33;;;;;;;;;2.25;1.75;;;;;20.04;46.98;101340.00;5055804;28;45784;-50
2022/01/03 04:20:59;;;;;;;;;2.50;1.00;;;;;20.04;47.18;101339.16;5056274;28;45478;-55
2022/01/03 04:23:24;;;;;;;;;0.25;0.25;;;;;20.04;47.65;101347.03;5056195;28;45571;-59
2022/01/03 04:25:53;;;;;;;;;2.00;1.00;;;;;20.06;47.15;101342.56;5055655;28;45365;-52
2022/01/03 04:28:19;;;;;;;;;3.75;0.00;;;;;20.06;47.10;101338.16;5055753;28;45771;-53
2022/01/03 04:30:45;;;;;;;;;3.00;2.00;;;;;20.08;47.29;101340.69;5055852;28;45305;-52
2022/01/03 04:33:10;;;;;;;;;0.00;0.00;;;;;20.11;47.01;101331.84;5055920;28;45559;-55
2022/01/03 04:35:36;;;;;;;;;2.50;1.00;;;;;20.14;47.27;101339.56;5055529;28;45467;-54
2022/01/03 04:38:01;;;;;;;;;1.00;1.00;;;;;20.17;47.60;101328.91;5056353;28;45410;-56
2022/01/03 04:40:27;;;;;;;;;1.00;1.00;;;;;20.22;46.91;101327.78;5059154;28;45417;-56
2022/01/03 04:42:52;;;;;;;;;4.25;1.00;;;;;20.26;47.41;101315.31;5059340;28;45336;-54
2022/01/03 04:45:18;;;;;;;;;1.00;1.00;;;;;20.33;47.27;101316.75;5058705;28;46457;-56
2022/01/03 04:47:43;;;;;;;;;1.25;0.25;;;;;20.36;47.36;101316.59;5040791;28;45509;-59
2022/01/03 04:50:09;;;;;;;;;0.50;0.50;;;;;20.41;46.85;101323.44;5040886;28;45395;-55
2022/01/03 04:52:34;;;;;;;;;2.00;2.00;;;;;20.45;47.06;101311.84;5059427;28;45368;-60
2022/01/03 04:55:01;;;;;;;;;1.50;1.50;;;;;20.48;46.79;101324.84;5058870;28;45352;-62
2022/01/03 04:57:27;;;;;;;;;0.50;0.50;;;;;20.50;47.16;101310.69;5058735;28;45348;-58
2022/01/03 04:59:52;;;;;;;;;0.75;0.75;;;;;20.54;47.19;101311.41;5040642;28;45369;-59
2022/01/03 05:02:17;;;;;;;;;2.00;0.25;;;;;20.59;47.00;101308.53;5058906;28;45362;-58
2022/01/03 05:04:43;;;;;;;;;0.25;0.25;;;;;20.62;46.61;101311.00;5058521;28;45723;-56
2022/01/03 05:07:09;;;;;;;;;0.50;0.00;;;;;20.65;46.94;101309.09;5058656;28;45390;-59
2022/01/03 05:09:34;;;;;;;;;1.25;1.00;;;;;20.68;46.88;101311.56;5058836;28;45498;-57
2022/01/03 05:11:59;;;;;;;;;3.00;1.50;;;;;20.70;46.85;101299.19;5040788;28;45538;-54
2022/01/03 05:14:25;;;;;;;;;1.25;1.25;;;;;20.71;47.05;101292.16;5058370;28;46133;-59
2022/01/03 05:16:52;;;;;;;;;2.50;1.00;;;;;20.74;46.82;101291.13;5058364;28;45414;-61
2022/01/03 05:19:18;;;;;;;;;1.00;0.75;;;;;20.76;47.02;101300.69;5058577;28;45328;-54
2022/01/03 05:21:46;;;;;;;;;1.00;1.00;;;;;20.79;46.45;101303.19;5058694;28;45640;-55
2022/01/03 05:24:11;;;;;;;;;5.00;2.00;;;;;20.81;46.90;101300.47;5058369;28;45295;-60
2022/01/03 05:26:36;;;;;;;;;0.00;0.00;;;;;20.78;46.54;101293.56;5058439;28;45248;-53
2022/01/03 05:29:02;;;;;;;;;1.25;1.25;;;;;20.83;46.67;101302.13;5058874;28;45650;-58
2022/01/03 05:31:27;;;;;;;;;1.00;0.50;;;;;20.84;46.85;101305.59;5058401;28;45478;-58
2022/01/03 05:33:53;;;;;;;;;2.50;1.00;;;;;20.85;46.65;101299.41;5058168;28;45252;-54
2022/01/03 05:36:18;;;;;;;;;0.25;0.25;;;;;20.86;46.63;101306.38;5058066;28;45419;-55
2022/01/03 05:38:43;;;;;;;;;2.00;1.00;;;;;20.84;46.89;101301.16;5058377;28;45380;-53
2022/01/03 05:41:09;;;;;;;;;2.00;0.00;;;;;20.86;46.69;101309.00;5058399;28;45398;-55
2022/01/03 05:43:34;;;;;;;;;1.00;1.00;;;;;20.84;46.65;101308.22;5058185;28;45613;-57
2022/01/03 05:45:59;;;;;;;;;2.50;2.00;;;;;20.87;46.49;101307.22;5057998;28;45364;-53
2022/01/03 05:48:25;;;;;;;;;7.75;1.75;;;;;20.86;46.53;101306.38;5058099;28;45841;-57
2022/01/03 05:50:50;;;;;;;;;2.75;1.25;;;;;20.84;46.65;101309.06;5057601;28;45319;-57
2022/01/03 05:53:15;;;;;;;;;0.25;0.25;;;;;20.85;46.61;101299.41;5057941;28;45411;-60
2022/01/03 05:55:41;;;;;;;;;0.50;0.50;;;;;20.85;46.64;101307.28;5057863;28;45471;-60
2022/01/03 05:58:06;;;;;;;;;2.00;1.25;;;;;20.84;46.89;101314.34;5058253;28;45478;-60
2022/01/03 06:00:31;;;;;;;;;3.00;1.00;;;;;20.84;46.50;101313.50;5058124;28;45640;-58
2022/01/03 06:02:58;;;;;;;;;2.00;0.00;;;;;20.83;46.34;101317.06;5057506;28;46181;-59
2022/01/03 06:08:01;;;;;;;;;1.00;1.00;;;;;20.84;46.72;101316.13;5057484;28;45237;-54
2022/01/03 06:10:28;;;;;;;;;3.00;2.00;;;;;20.83;46.82;101303.88;5057935;28;45462;-56
2022/01/03 06:12:53;;;;;;;;;0.50;0.50;;;;;20.83;46.65;101311.78;5057568;28;45574;-55
2022/01/03 06:15:21;;;;;;;;;2.00;1.00;;;;;20.82;46.65;101310.06;5057385;28;45289;-56
2022/01/03 06:17:47;;;;;;;;;2.00;1.00;;;;;20.80;46.84;101307.53;5057583;28;45442;-56
2022/01/03 06:20:13;;;;;;;;;2.00;0.00;;;;;20.81;46.46;101308.38;5057659;28;45468;-60
2022/01/03 06:22:40;;;;;;;;;3.25;1.00;;;;;20.80;46.97;101307.53;5057525;28;45475;-60
2022/01/03 06:25:05;;;;;;;;;0.25;0.25;;;;;20.79;46.73;101302.31;5057905;28;45400;-60
2022/01/03 06:27:31;;;;;;;;;2.50;0.75;;;;;20.79;46.53;101305.81;5039370;28;45241;-58
2022/01/03 06:29:56;;;;;;;;;1.00;1.00;;;;;20.78;46.91;101305.91;5057486;28;45226;-59
2022/01/03 06:32:21;;;;;;;;;3.00;2.00;;;;;20.78;46.86;101300.63;5057066;28;45486;-58
2022/01/03 06:34:47;;;;;;;;;2.00;1.00;;;;;20.79;46.97;101299.69;5057229;28;45167;-54
2022/01/03 06:37:12;;;;;;;;;1.25;0.50;;;;;20.77;46.86;101291.88;5057275;28;45258;-56
2022/01/03 06:39:37;;;;;;;;;2.75;1.75;;;;;20.77;46.40;101297.13;5057719;28;45237;-56
2022/01/03 06:42:03;;;;;;;;;0.75;0.25;;;;;20.74;46.94;101285.88;5056957;28;45252;-55
2022/01/03 06:44:28;;;;;;;;;0.50;0.50;;;;;20.76;46.87;101289.31;5057019;28;45436;-54
2022/01/03 06:46:53;;;;;;;;;2.75;0.50;;;;;20.74;46.81;101276.19;5057011;28;45537;-52
2022/01/03 06:49:19;;;;;;;;;4.00;1.00;;;;;20.74;47.05;101272.69;5057212;28;45552;-58
2022/01/03 06:51:44;;;;;;;;;0.75;0.75;;;;;20.73;46.91;101270.97;5056684;28;50681;-56
2022/01/03 06:54:14;;;;;;;;;1.25;1.00;;;;;20.73;47.02;101273.63;5057108;28;45306;-57
2022/01/03 06:56:40;;;;;;;;;3.75;2.00;;;;;20.70;46.89;101283.38;5057436;28;45300;-54
2022/01/03 06:59:05;;;;;;;;;1.00;1.00;;;;;20.72;46.73;101287.72;5039134;28;45326;-56
2022/01/03 07:01:31;;;;;;;;;0.75;0.50;;;;;20.72;46.77;101282.44;5055913;28;45233;-54
2022/01/03 07:03:56;;;;;;;;;0.75;0.75;;;;;20.70;46.90;101285.16;5056681;28;45397;-57
2022/01/03 07:06:21;;;;;;;;;2.75;1.00;;;;;20.70;46.88;101286.00;5056747;28;45591;-57
2022/01/03 07:08:47;;;;;;;;;2.00;1.00;;;;;20.67;46.85;101275.63;5038760;28;45543;-55
2022/01/03 07:11:12;;;;;;;;;0.75;0.75;;;;;20.69;46.50;101265.84;5056540;28;47314;-57
2022/01/03 07:13:47;;;;;;;;;1.25;1.25;;;;;20.67;46.72;101262.44;5056910;28;45452;-56
2022/01/03 07:18:57;;;;;;;;;3.75;2.00;;;;;20.68;47.04;101265.94;5056834;28;45375;-56
2022/01/03 07:21:24;;;;;;;;;2.25;0.25;;;;;20.66;46.83;101258.13;5038475;28;46020;-59
2022/01/03 07:23:50;;;;;;;;;0.75;0.75;;;;;20.66;46.93;101260.75;5038479;28;45335;-55
2022/01/03 07:26:15;;;;;;;;;5.00;1.75;;;;;20.64;46.63;101262.63;5056612;28;45423;-55
2022/01/03 07:28:41;;;;;;;;;0.50;0.50;;;;;20.65;46.59;101256.41;5057129;28;45616;-58
2022/01/03 07:31:07;;;;;;;;;5.00;1.00;;;;;20.64;47.02;101259.97;5056361;28;46616;-53
2022/01/03 07:33:32;;;;;;;;;3.00;1.00;;;;;20.63;46.69;101265.31;5038511;28;45419;-55
2022/01/03 07:35:58;;;;;;;;;1.00;0.75;;;;;20.64;46.73;101259.13;5056463;28;45653;-54
2022/01/03 07:38:23;;;;;;;;;2.00;0.00;;;;;20.61;46.83;101252.22;5056567;28;45559;-53
2022/01/03 07:40:48;;;;;;;;;3.25;2.50;;;;;20.62;47.04;101253.06;5056213;28;45605;-56
2022/01/03 07:43:14;;;;;;;;;1.50;1.50;;;;;20.60;46.78;101242.63;5056443;28;45226;-53
2022/01/03 07:45:40;;;;;;;;;2.00;1.75;;;;;20.58;46.59;101238.38;5056832;28;45276;-56
2022/01/03 07:48:05;;;;;;;;;2.25;1.75;;;;;20.57;45.95;101253.28;5056538;28;45613;-47
2022/01/03 07:50:31;;;;;;;;;2.50;2.00;;;;;20.51;45.94;101253.59;5056203;28;45222;-61
2022/01/03 07:53:00;;;;;;;;;4.25;2.00;;;;;20.47;45.55;101238.88;5056172;28;45359;-59
2022/01/03 07:55:26;;;;;;;;;3.75;2.00;;;;;20.37;45.28;101231.41;5056096;28;45391;-57
2022/01/03 07:57:52;;;;;;;;;4.50;2.00;;;;;20.38;45.26;101238.41;5038233;28;45565;-58
2022/01/03 08:00:18;;;;;;;;;5.25;2.50;;;;;20.33;45.13;101237.78;5055874;28;45426;-55
2022/01/03 08:02:44;;;;;;;;;5.50;1.00;;;;;20.29;45.08;101238.84;5056367;28;46028;-54
2022/01/03 08:05:13;;;;;;;;;4.25;3.00;;;;;20.25;45.03;101237.28;5056483;28;45312;-57
2022/01/03 08:07:39;;;;;;;;;7.75;3.00;;;;;20.20;44.95;101226.97;5056246;28;45217;-54
2022/01/03 08:10:06;;;;;;;;;4.00;2.00;;;;;20.17;44.98;101237.66;5055928;28;46212;-54
2022/01/03 08:12:32;;;;;;;;;4.25;3.00;;;;;20.11;44.96;101226.56;5055837;28;45455;-54
2022/01/03 08:14:57;;;;;;;;;4.75;3.75;;;;;20.08;45.26;101225.78;5041102;28;45291;-55
2022/01/03 08:17:23;;;;;;;;;6.25;2.75;;;;;20.06;45.24;101227.63;5041695;28;45634;-53
2022/01/03 08:19:48;;;;;;;;;10.25;3.25;;;;;20.04;44.93;101224.22;5059232;28;46431;-56
2022/01/03 08:22:14;;;;;;;;;3.50;3.00;;;;;20.01;44.97;101223.50;5059856;28;45415;-56
2022/01/03 08:24:39;;;;;;;;;3.00;1.00;;;;;19.99;45.09;101215.69;5059415;28;45261;-60
2022/01/03 08:27:04;;;;;;;;;2.50;2.00;;;;;19.97;45.11;101216.66;5059483;28;45217;-56
2022/01/03 08:29:30;;;;;;;;;3.25;3.00;;;;;19.93;45.11;101213.34;5059308;28;45283;-50
2022/01/03 08:31:55;;;;;;;;;4.25;2.50;;;;;19.90;45.18;101209.09;5059146;28;45430;-57
2022/01/03 08:34:21;;;;;;;;;2.75;2.75;;;;;19.86;44.89;101210.13;5059371;28;45269;-47
2022/01/03 08:36:46;;;;;;;;;4.25;3.00;;;;;19.86;45.12;101212.78;5059362;28;45769;-48
2022/01/03 08:39:12;;;;;;;;;3.00;3.00;;;;;19.82;45.15;101207.69;5059261;28;46343;-59
2022/01/03 08:41:38;;;;;;;;;3.00;2.00;;;;;19.78;44.63;101218.38;5058914;28;45328;-48
2022/01/03 08:44:03;;;;;;;;;5.75;3.25;;;;;19.73;44.83;101216.88;5040936;28;45374;-58
2022/01/03 08:46:29;;;;;;;;;5.25;3.25;;;;;19.67;45.24;101215.38;5059151;28;45254;-53
2022/01/03 08:48:54;;;;;;;;;7.00;5.00;;;;;19.62;45.41;101207.69;5058812;28;45489;-53
2022/01/03 08:51:20;;;;;;;;;4.75;3.25;;;;;19.60;44.93;101208.69;5058920;28;45551;-53
2022/01/03 08:53:46;;;;;;;;;3.00;3.00;;;;;19.62;45.40;101212.09;5059306;28;45441;-52
2022/01/03 08:56:11;;;;;;;;;3.50;1.50;;;;;19.65;45.67;101196.19;5058985;28;45314;-53
2022/01/03 08:58:37;;;;;;;;;2.25;2.25;;;;;19.67;45.46;101196.97;5058675;28;45431;-49
2022/01/03 09:01:02;;;;;;;;;4.25;2.00;;;;;19.70;45.43;101202.06;5058775;28;45351;-56
2022/01/03 09:03:28;;;;;;;;;5.00;3.50;;;;;19.74;45.74;101208.03;5058698;28;45323;-55
2022/01/03 09:05:54;;;;;;;;;3.25;2.75;;;;;19.76;45.23;101209.69;5058860;28;45336;-56
2022/01/03 09:08:22;;;;;;;;;2.50;2.00;;;;;19.78;45.30;101197.34;5058410;28;45442;-53
2022/01/03 09:10:48;;;;;;;;;6.00;2.00;;;;;19.80;45.60;101199.88;5058935;28;45789;-57
2022/01/03 09:13:13;;;;;;;;;5.00;3.00;;;;;19.82;45.38;101191.91;5058871;28;45376;-56
2022/01/03 09:15:44;;;;;;;;;4.25;3.25;;;;;19.85;45.58;101200.50;5058728;28;45635;-56
2022/01/03 09:18:10;;;;;;;;;2.50;2.00;;;;;19.85;45.38;101208.41;5057921;28;45660;-54
2022/01/03 09:20:35;;;;;;;;;4.50;2.00;;;;;19.87;45.33;101203.13;5058425;28;45718;-54
2022/01/03 09:23:08;;;;;;;;;6.00;3.75;;;;;19.89;45.36;101202.13;5058459;28;45185;-57
2022/01/03 09:30:47;;;;;;;;;2.50;2.50;;;;;19.92;45.47;101211.63;5058578;28;45313;-55
2022/01/03 09:33:13;;;;;;;;;4.50;2.50;;;;;19.93;45.55;101206.31;5058380;28;45464;-59
2022/01/03 09:35:40;;;;;;;;;4.00;3.00;;;;;19.92;45.47;101194.09;5058432;28;45212;-58
2022/01/03 09:38:06;;;;;;;;;3.50;2.00;;;;;19.94;45.70;101199.25;5039810;28;48320;-55
2022/01/03 09:40:31;;;;;;;;;4.00;2.00;;;;;19.93;45.33;101195.78;5058247;28;45402;-55
2022/01/03 09:42:59;;;;;;;;;1.75;1.75;;;;;19.95;45.33;101181.72;5058193;28;45351;-53
2022/01/03 09:45:34;;;;;;;;;4.00;2.75;;;;;19.95;45.76;101187.81;5058323;28;45191;-54
2022/01/03 09:48:01;;;;;;;;;3.00;2.00;;;;;19.97;45.40;101196.50;5058083;28;46363;-51
2022/01/03 09:50:26;;;;;;;;;4.50;2.75;;;;;19.96;45.96;101205.31;5039845;28;45865;-50
2022/01/03 09:52:52;;;;;;;;;3.25;1.25;;;;;19.98;45.73;101203.47;5058009;28;45205;-53
2022/01/03 09:55:20;;;;;;;;;1.25;1.25;;;;;19.98;45.71;101208.72;5040303;28;45218;-56
2022/01/03 09:57:47;;;;;;;;;2.25;1.50;;;;;19.99;45.84;101220.09;5058031;28;45695;-51
2022/01/03 10:00:24;;;;;;;;;3.25;2.00;;;;;19.99;45.56;101209.56;5057878;28;45741;-54
2022/01/03 10:02:52;;;;;;;;;3.75;2.75;;;;;19.99;45.99;101209.56;5058145;28;45459;-55
2022/01/03 10:05:18;;;;;;;;;2.25;2.00;;;;;19.95;45.48;101195.72;5058467;28;45254;-58
2022/01/03 10:07:44;;;;;;;;;3.25;2.25;;;;;19.99;45.87;101194.66;5057488;28;45444;-55
2022/01/03 10:10:11;;;;;;;;;3.00;1.00;;;;;20.00;46.00;101196.34;5057645;28;45408;-56
2022/01/03 10:12:37;;;;;;;;;3.00;1.75;;;;;19.99;45.71;101199.91;5057834;28;45514;-58
2022/01/03 10:15:05;;;;;;;;;5.00;1.75;;;;;19.98;45.73;101198.22;5057672;28;45332;-57
2022/01/03 10:17:39;;;;;;;;;2.75;2.50;;;;;20.00;45.65;101204.25;5057301;28;45376;-57
2022/01/03 10:20:09;;;;;;;;;4.25;1.75;;;;;20.00;45.55;101201.63;5057584;28;45836;-52
2022/01/03 10:22:35;;;;;;;;;1.00;1.00;;;;;20.01;45.64;101202.47;5039496;28;45454;-55
2022/01/03 10:25:09;;;;;;;;;2.00;0.00;;;;;20.01;46.00;101191.94;5057738;28;45537;-59
2022/01/03 10:27:45;;;;;;;;;4.25;2.00;;;;;19.97;46.22;101180.72;5057260;28;46408;-50
2022/01/03 10:30:11;;;;;;;;;3.00;2.00;;;;;20.00;46.00;101180.56;5057439;28;45903;-55
2022/01/03 10:32:36;;;;;;;;;3.50;0.00;;;;;19.99;46.07;101170.97;5057460;28;45906;-53
2022/01/03 10:35:16;;;;;;;;;2.00;2.00;;;;;20.01;46.27;101171.72;5057493;28;45554;-59
2022/01/03 10:37:42;;;;;;;;;3.75;2.25;;;;;20.01;45.90;101176.16;5057060;28;45382;-59
2022/01/03 10:40:18;;;;;;;;;3.50;2.00;;;;;20.01;45.71;101163.00;5057246;28;45265;-58
2022/01/03 10:42:43;;;;;;;;;4.25;2.00;;;;;19.99;45.93;101168.34;5057162;28;45350;-56
2022/01/03 10:45:09;;;;;;;;;2.00;2.00;;;;;19.98;45.84;101156.09;5057506;28;45541;-53
2022/01/03 10:47:35;;;;;;;;;1.75;1.00;;;;;20.00;46.17;101142.88;5057020;28;45496;-59
2022/01/03 10:50:18;;;;;;;;;2.00;2.00;;;;;20.01;45.95;101150.69;5057137;28;45450;-61
2022/01/03 10:52:46;;;;;;;;;3.00;2.25;;;;;19.99;45.64;101131.50;5057119;28;45247;-60
2022/01/03 10:55:11;;;;;;;;;2.75;2.00;;;;;20.01;45.64;101134.91;5057009;28;45541;-61
2022/01/03 10:57:54;;;;;;;;;4.00;3.00;;;;;20.00;45.93;101137.59;5038750;28;48399;-61
2022/01/03 11:00:25;;;;;;;;;2.75;1.25;;;;;20.00;45.66;101134.97;5057246;28;45901;-60
2022/01/03 11:03:37;;;;;;;;;1.00;1.00;;;;;20.01;45.86;101128.78;5039209;28;45337;-46
2022/01/03 11:06:20;;;;;;;;;4.75;1.00;;;;;20.00;46.04;101125.31;5011404;28;45375;-52
2022/01/03 11:11:45;;;;;;;;;0.25;0.00;;;;;20.00;46.24;101106.91;5056652;28;45779;-62
2022/01/03 11:14:30;;;;;;;;;0.75;0.75;;;;;20.00;45.78;101106.91;5056983;28;45396;-56
2022/01/03 11:16:55;;;;;;;;;2.00;1.25;;;;;20.00;45.92;101106.91;5056854;28;45331;-54
2022/01/03 11:19:44;;;;;;;;;4.75;2.00;;;;;20.00;45.83;101106.91;5056771;28;46045;-54
2022/01/03 11:22:09;;;;;;;;;2.00;2.00;;;;;20.00;46.03;101104.28;5056953;28;45901;-51
2022/01/03 11:24:48;;;;;;;;;2.00;1.00;;;;;20.01;45.82;101095.44;5038857;28;45415;-49
2022/01/03 11:27:14;;;;;;;;;3.75;2.00;;;;;20.01;46.17;101081.44;5056842;28;45337;-46
2022/01/03 11:29:42;;;;;;;;;2.75;1.00;;;;;20.00;45.58;101083.22;5056515;28;45512;-47
2022/01/03 11:32:08;;;;;;;;;6.00;2.75;;;;;20.00;45.56;101077.09;5056213;28;45174;-53
2022/01/03 11:34:34;;;;;;;;;2.00;1.25;;;;;20.00;45.93;101075.34;5056570;28;45403;-53
2022/01/03 11:37:03;;;;;;;;;7.75;3.75;;;;;19.99;46.05;101063.09;5056467;28;45672;-54
2022/01/03 11:39:32;;;;;;;;;2.00;2.00;;;;;20.01;46.08;101055.97;5038686;28;45431;-53
2022/01/03 11:41:58;;;;;;;;;3.00;3.00;;;;;20.01;45.65;101055.13;5056106;28;45341;-55